createdAt,value
2018-11-02T00:01:31.752Z,98241.47
2018-11-02T00:04:04.288Z,98236.90
2018-11-02T00:06:36.760Z,98232.86
2018-11-02T00:09:09.104Z,98233.73
2018-11-02T00:11:41.556Z,98245.02
2018-11-02T00:14:13.917Z,98248.19
2018-11-02T00:16:46.225Z,98262.91
2018-11-02T00:19:36.659Z,98265.81
2018-11-02T00:22:09.213Z,98272.74
2018-11-02T00:24:41.590Z,98274.39
2018-11-02T00:27:14.075Z,98275.00
2018-11-02T00:29:46.612Z,98269.31
2018-11-02T00:32:19.173Z,98262.22
2018-11-02T00:34:51.530Z,98274.27
2018-11-02T00:37:23.864Z,98270.58
2018-11-02T00:39:56.478Z,98278.80
2018-11-02T00:42:28.900Z,98284.78
2018-11-02T00:45:01.272Z,98285.90
2018-11-02T00:47:33.805Z,98282.62
2018-11-02T00:50:08.446Z,98280.23
2018-11-02T00:52:40.977Z,98281.22
2018-11-02T00:55:13.383Z,98276.16
2018-11-02T00:57:45.730Z,98274.25
2018-11-02T01:00:18.246Z,98277.68
2018-11-02T01:02:50.575Z,98276.80
2018-11-02T01:05:23.051Z,98272.12
2018-11-02T01:07:55.415Z,98272.76
2018-11-02T01:10:27.922Z,98277.94
2018-11-02T01:13:00.266Z,98269.31
2018-11-02T01:15:32.528Z,98277.66
2018-11-02T01:18:05.443Z,98277.20
2018-11-02T01:20:37.850Z,98273.02
2018-11-02T01:23:10.278Z,98273.14
2018-11-02T01:25:43.354Z,98273.28
2018-11-02T01:28:15.725Z,98278.72
2018-11-02T01:30:48.111Z,98280.52
2018-11-02T01:33:38.495Z,98279.13
2018-11-02T01:36:10.803Z,98274.34
2018-11-02T01:38:43.196Z,98284.36
2018-11-02T01:41:15.418Z,98285.50
2018-11-02T01:43:47.717Z,98285.26
2018-11-02T01:46:20.057Z,98288.58
2018-11-02T01:48:52.379Z,98294.37
2018-11-02T01:51:24.798Z,98290.45
2018-11-02T01:53:57.253Z,98289.06
2018-11-02T01:56:29.555Z,98291.59
2018-11-02T01:59:02.082Z,98287.55
2018-11-02T02:01:34.445Z,98283.86
2018-11-02T02:04:06.790Z,98278.16
2018-11-02T02:06:39.212Z,98270.59
2018-11-02T02:09:12.412Z,98263.01
2018-11-02T02:11:44.906Z,98269.20
2018-11-02T02:14:17.438Z,98271.25
2018-11-02T02:16:49.865Z,98278.59
2018-11-02T02:19:22.639Z,98270.63
2018-11-02T02:21:55.058Z,98272.63
2018-11-02T02:24:27.422Z,98283.53
2018-11-02T02:26:59.830Z,98283.77
2018-11-02T02:29:32.118Z,98290.09
2018-11-02T02:32:04.657Z,98293.89
2018-11-02T02:34:37.010Z,98297.81
2018-11-02T02:37:09.418Z,98305.87
2018-11-02T02:39:41.741Z,98304.43
2018-11-02T02:42:14.207Z,98302.17
2018-11-02T02:44:46.513Z,98291.75
2018-11-02T02:47:18.846Z,98291.60
2018-11-02T02:49:51.374Z,98283.12
2018-11-02T02:52:23.845Z,98276.44
2018-11-02T02:54:56.388Z,98268.48
2018-11-02T02:57:28.686Z,98279.11
2018-11-02T03:00:01.113Z,98285.59
2018-11-02T03:02:33.375Z,98298.98
2018-11-02T03:05:05.998Z,98311.30
2018-11-02T03:07:38.862Z,98313.56
2018-11-02T03:10:11.476Z,98320.48
2018-11-02T03:12:43.811Z,98323.39
2018-11-02T03:15:16.342Z,98318.33
2018-11-02T03:17:48.826Z,98323.63
2018-11-02T03:20:21.178Z,98319.86
2018-11-02T03:22:53.453Z,98318.33
2018-11-02T03:25:25.744Z,98314.84
2018-11-02T03:27:58.179Z,98318.64
2018-11-02T03:30:30.507Z,98312.56
2018-11-02T03:33:02.817Z,98312.30
2018-11-02T03:35:35.226Z,98323.02
2018-11-02T03:38:07.595Z,98317.80
2018-11-02T03:40:40.002Z,98319.34
2018-11-02T03:43:12.554Z,98318.33
2018-11-02T03:45:44.957Z,98329.72
2018-11-02T03:48:17.359Z,98336.58
2018-11-02T03:50:49.825Z,98339.84
2018-11-02T03:53:22.267Z,98344.67
2018-11-02T03:55:54.610Z,98338.87
2018-11-02T03:58:26.918Z,98335.97
2018-11-02T04:00:59.487Z,98347.98
2018-11-02T04:03:31.812Z,98350.25
2018-11-02T04:06:05.054Z,98356.30
2018-11-02T04:08:37.493Z,98353.51
2018-11-02T04:11:09.925Z,98366.78
2018-11-02T04:13:42.427Z,98370.43
2018-11-02T04:16:14.782Z,98368.16
2018-11-02T04:18:47.192Z,98372.19
2018-11-02T04:21:19.584Z,98376.72
2018-11-02T04:23:51.863Z,98377.52
2018-11-02T04:26:24.142Z,98383.81
2018-11-02T04:28:56.431Z,98390.38
2018-11-02T04:31:28.826Z,98392.36
2018-11-02T04:34:01.239Z,98389.45
2018-11-02T04:36:33.645Z,98380.94
2018-11-02T04:39:08.249Z,98381.93
2018-11-02T04:41:40.615Z,98382.42
2018-11-02T04:44:13.071Z,98384.64
2018-11-02T04:46:45.373Z,98379.63
2018-11-02T04:49:17.873Z,98387.10
2018-11-02T04:51:50.416Z,98386.49
2018-11-02T04:54:22.844Z,98392.05
2018-11-02T04:56:55.313Z,98399.91
2018-11-02T04:59:27.707Z,98407.50
2018-11-02T05:02:00.161Z,98413.83
2018-11-02T05:04:32.531Z,98414.34
2018-11-02T05:07:05.138Z,98418.02
2018-11-02T05:09:37.478Z,98416.03
2018-11-02T05:12:09.721Z,98413.35
2018-11-02T05:14:42.133Z,98420.72
2018-11-02T05:17:14.798Z,98426.61
2018-11-02T05:19:47.166Z,98427.86
2018-11-02T05:22:19.584Z,98429.25
2018-11-02T05:24:51.882Z,98434.25
2018-11-02T05:27:24.219Z,98440.13
2018-11-02T05:29:56.526Z,98437.60
2018-11-02T05:32:28.874Z,98441.28
2018-11-02T05:35:01.153Z,98442.92
2018-11-02T05:37:33.457Z,98427.63
2018-11-02T05:40:06.545Z,98441.38
2018-11-02T05:42:38.872Z,98447.94
2018-11-02T05:45:11.217Z,98450.64
2018-11-02T05:47:43.574Z,98448.39
2018-11-02T05:50:16.033Z,98452.30
2018-11-02T05:52:48.494Z,98458.50
2018-11-02T05:55:21.018Z,98470.55
2018-11-02T05:57:53.476Z,98476.70
2018-11-02T06:00:25.758Z,98478.02
2018-11-02T06:02:58.075Z,98479.84
2018-11-02T06:05:30.705Z,98474.00
2018-11-02T06:08:03.176Z,98478.23
2018-11-02T06:10:35.536Z,98479.50
2018-11-02T06:13:08.117Z,98481.02
2018-11-02T06:15:40.461Z,98488.95
2018-11-02T06:18:12.738Z,98493.00
2018-11-02T06:20:45.026Z,98496.42
2018-11-02T06:23:17.653Z,98503.12
2018-11-02T06:25:49.945Z,98508.23
2018-11-02T06:28:22.486Z,98513.77
2018-11-02T06:30:54.873Z,98509.98
2018-11-02T06:33:27.369Z,98513.33
2018-11-02T06:35:59.874Z,98525.09
2018-11-02T06:38:32.200Z,98535.96
2018-11-02T06:41:04.923Z,98534.98
2018-11-02T06:43:37.354Z,98540.06
2018-11-02T06:46:09.766Z,98543.45
2018-11-02T06:48:42.093Z,98547.91
2018-11-02T06:51:14.503Z,98551.45
2018-11-02T06:53:46.965Z,98554.16
2018-11-02T06:56:19.356Z,98548.67
2018-11-02T06:58:52.040Z,98545.98
2018-11-02T07:01:24.358Z,98553.41
2018-11-02T07:03:56.737Z,98563.52
2018-11-02T07:06:29.075Z,98559.42
2018-11-02T07:09:01.286Z,98557.41
2018-11-02T07:11:33.529Z,98556.27
2018-11-02T07:14:06.163Z,98560.94
2018-11-02T07:16:38.742Z,98567.84
2018-11-02T07:19:11.094Z,98577.65
2018-11-02T07:21:43.538Z,98568.24
2018-11-02T07:24:15.831Z,98567.84
2018-11-02T07:26:48.068Z,98573.17
2018-11-02T07:29:20.315Z,98580.97
2018-11-02T07:31:52.718Z,98581.97
2018-11-02T07:34:25.067Z,98579.31
2018-11-02T07:36:57.233Z,98581.20
2018-11-02T07:39:32.056Z,98584.13
2018-11-02T07:42:04.425Z,98583.73
2018-11-02T07:44:36.914Z,98569.88
2018-11-02T07:47:09.180Z,98574.66
2018-11-02T07:49:41.641Z,98570.95
2018-11-02T07:52:13.915Z,98568.64
2018-11-02T07:54:46.173Z,98562.67
2018-11-02T07:57:18.542Z,98557.30
2018-11-02T07:59:50.974Z,98561.22
2018-11-02T08:02:23.281Z,98569.52
2018-11-02T08:04:55.645Z,98573.14
2018-11-02T08:07:27.978Z,98590.03
2018-11-02T08:10:00.283Z,98589.88
2018-11-02T08:12:32.676Z,98599.89
2018-11-02T08:15:06.935Z,98596.11
2018-11-02T08:17:40.081Z,98607.88
2018-11-02T08:20:13.176Z,98612.56
2018-11-02T08:22:45.422Z,98622.20
2018-11-02T08:25:17.697Z,98621.74
2018-11-02T08:27:50.074Z,98615.76
2018-11-02T08:30:22.506Z,98618.59
2018-11-02T08:32:54.810Z,98618.39
2018-11-02T08:35:27.150Z,98606.16
2018-11-02T08:37:59.390Z,98604.19
2018-11-02T08:40:31.698Z,98611.63
2018-11-02T08:43:04.282Z,98613.73
2018-11-02T08:45:36.575Z,98622.57
2018-11-02T08:48:08.946Z,98622.45
2018-11-02T08:50:41.369Z,98625.95
2018-11-02T08:53:13.682Z,98618.79
2018-11-02T08:55:46.197Z,98621.17
2018-11-02T08:58:18.746Z,98618.79
2018-11-02T09:00:50.829Z,98613.02
2018-11-02T09:03:23.281Z,98625.12
2018-11-02T09:05:55.661Z,98618.57
2018-11-02T09:08:27.993Z,98625.61
2018-11-02T09:11:00.360Z,98625.39
2018-11-02T09:13:33.114Z,98628.77
2018-11-02T09:16:05.731Z,98625.32
2018-11-02T09:18:38.146Z,98619.22
2018-11-02T09:21:10.818Z,98626.25
2018-11-02T09:23:43.589Z,98625.04
2018-11-02T09:26:15.892Z,98623.77
2018-11-02T09:28:48.234Z,98620.66
2018-11-02T09:31:20.653Z,98623.45
2018-11-02T09:33:53.042Z,98624.02
2018-11-02T09:36:25.604Z,98621.70
2018-11-02T09:38:57.915Z,98621.28
2018-11-02T09:41:30.378Z,98610.19
2018-11-02T09:44:02.892Z,98606.50
2018-11-02T09:46:35.845Z,98603.39
2018-11-02T09:49:08.291Z,98599.80
2018-11-02T09:51:40.845Z,98602.75
2018-11-02T09:54:12.989Z,98605.83
2018-11-02T09:56:45.381Z,98610.05
2018-11-02T09:59:17.806Z,98609.45
2018-11-02T10:01:50.171Z,98610.28
2018-11-02T10:04:22.808Z,98604.46
2018-11-02T10:06:55.680Z,98611.86
2018-11-02T10:09:28.146Z,98604.59
2018-11-02T10:12:00.539Z,98599.66
2018-11-02T10:14:32.875Z,98596.02
2018-11-02T10:17:05.518Z,98598.86
2018-11-02T10:19:38.074Z,98601.00
2018-11-02T10:22:10.493Z,98593.91
2018-11-02T10:24:43.107Z,98601.59
2018-11-02T10:27:15.753Z,98604.86
2018-11-02T10:29:48.228Z,98602.85
2018-11-02T10:32:20.690Z,98596.16
2018-11-02T10:34:53.146Z,98584.52
2018-11-02T10:37:25.683Z,98585.16
2018-11-02T10:39:58.178Z,98583.95
2018-11-02T10:42:30.621Z,98582.97
2018-11-02T10:45:03.605Z,98583.66
2018-11-02T10:47:36.183Z,98588.75
2018-11-02T10:50:08.673Z,98588.75
2018-11-02T10:52:41.189Z,98590.33
2018-11-02T10:55:13.559Z,98588.06
2018-11-02T10:57:46.317Z,98590.80
2018-11-02T11:00:24.120Z,98587.95
2018-11-02T11:02:56.611Z,98583.92
2018-11-02T11:05:29.140Z,98586.48
2018-11-02T11:08:01.606Z,98578.45
2018-11-02T11:10:33.956Z,98565.81
2018-11-02T11:13:06.750Z,98559.42
2018-11-02T11:15:38.815Z,98566.48
2018-11-02T11:18:11.229Z,98567.70
2018-11-02T11:20:43.718Z,98571.61
2018-11-02T11:23:16.311Z,98575.66
2018-11-02T11:25:48.867Z,98565.49
2018-11-02T11:28:21.375Z,98570.88
2018-11-02T11:30:53.697Z,98562.33
2018-11-02T11:33:26.275Z,98539.25
2018-11-02T11:35:58.622Z,98544.25
2018-11-02T11:38:33.035Z,98538.50
2018-11-02T11:41:05.475Z,98534.36
2018-11-02T11:43:38.060Z,98535.78
2018-11-02T11:46:10.634Z,98549.17
2018-11-02T11:48:43.310Z,98569.44
2018-11-02T11:51:15.568Z,98574.92
2018-11-02T11:53:48.322Z,98577.48
2018-11-02T11:56:20.750Z,98582.00
2018-11-02T11:58:53.164Z,98584.64
2018-11-02T12:01:25.638Z,98585.36
2018-11-02T12:03:58.067Z,98581.67
2018-11-02T12:06:30.458Z,98578.94
2018-11-02T12:09:03.821Z,98568.19
2018-11-02T12:11:36.205Z,98562.08
2018-11-02T12:14:08.580Z,98559.91
2018-11-02T12:16:41.015Z,98561.77
2018-11-02T12:19:13.820Z,98559.77
2018-11-02T12:21:46.172Z,98566.73
2018-11-02T12:24:18.534Z,98574.89
2018-11-02T12:26:51.034Z,98587.45
2018-11-02T12:29:23.478Z,98598.30
2018-11-02T12:31:55.860Z,98597.79
2018-11-02T12:34:28.343Z,98593.52
2018-11-02T12:37:00.781Z,98597.42
2018-11-02T12:39:33.171Z,98596.21
2018-11-02T12:42:05.550Z,98594.78
2018-11-02T12:44:37.898Z,98587.12
2018-11-02T12:47:10.282Z,98590.20
2018-11-02T12:49:42.947Z,98588.61
2018-11-02T12:52:15.030Z,98583.06
2018-11-02T12:54:47.446Z,98577.92
2018-11-02T12:57:19.861Z,98571.95
2018-11-02T12:59:52.338Z,98577.34
2018-11-02T13:02:24.685Z,98580.54
2018-11-02T13:04:57.123Z,98578.06
2018-11-02T13:07:29.579Z,98576.37
2018-11-02T13:10:02.279Z,98579.41
2018-11-02T13:12:34.595Z,98580.08
2018-11-02T13:15:09.126Z,98579.61
2018-11-02T13:17:42.584Z,98581.07
2018-11-02T13:20:17.470Z,98580.34
2018-11-02T13:22:51.902Z,98586.10
2018-11-02T13:25:24.293Z,98578.84
2018-11-02T13:27:56.679Z,98587.45
2018-11-02T13:30:29.311Z,98596.65
2018-11-02T13:33:01.575Z,98606.79
2018-11-02T13:35:34.019Z,98618.91
2018-11-02T13:38:06.492Z,98629.90
2018-11-02T13:40:38.861Z,98637.13
2018-11-02T13:43:11.559Z,98637.20
2018-11-02T13:45:43.804Z,98639.61
2018-11-02T13:48:16.189Z,98637.61
2018-11-02T13:50:48.579Z,98633.82
2018-11-02T13:53:21.105Z,98638.38
2018-11-02T13:55:53.469Z,98639.97
2018-11-02T13:58:26.121Z,98638.38
2018-11-02T14:00:58.751Z,98633.01
2018-11-02T14:03:31.101Z,98626.17
2018-11-02T14:06:03.670Z,98617.11
2018-11-02T14:08:36.116Z,98616.30
2018-11-02T14:11:08.489Z,98615.02
2018-11-02T14:13:40.858Z,98612.89
2018-11-02T14:16:13.385Z,98612.67
2018-11-02T14:18:45.826Z,98609.40
2018-11-02T14:21:18.193Z,98610.45
2018-11-02T14:23:50.767Z,98618.28
2018-11-02T14:26:23.148Z,98630.73
2018-11-02T14:28:55.493Z,98626.20
2018-11-02T14:31:27.862Z,98622.61
2018-11-02T14:34:00.297Z,98618.11
2018-11-02T14:36:32.659Z,98619.80
2018-11-02T14:39:08.288Z,98619.47
2018-11-02T14:41:41.534Z,98634.00
2018-11-02T14:44:13.938Z,98632.45
2018-11-02T14:46:47.188Z,98641.41
2018-11-02T14:49:19.610Z,98637.08
2018-11-02T14:51:52.111Z,98643.93
2018-11-02T14:54:24.637Z,98652.32
2018-11-02T14:56:57.034Z,98652.47
2018-11-02T14:59:29.449Z,98646.80
2018-11-02T15:02:01.883Z,98648.19
2018-11-02T15:04:39.063Z,98648.49
2018-11-02T15:07:14.756Z,98654.56
2018-11-02T15:09:47.963Z,98655.37
2018-11-02T15:12:20.389Z,98656.25
2018-11-02T15:14:52.746Z,98653.17
2018-11-02T15:17:25.141Z,98661.58
2018-11-02T15:19:57.531Z,98659.74
2018-11-02T15:22:29.942Z,98666.86
2018-11-02T15:25:02.347Z,98669.33
2018-11-02T15:27:34.742Z,98666.88
2018-11-02T15:30:10.107Z,98666.12
2018-11-02T15:32:43.986Z,98676.20
2018-11-02T15:35:18.468Z,98678.30
2018-11-02T15:37:51.860Z,98698.97
2018-11-02T15:40:24.979Z,98705.78
2018-11-02T15:42:57.752Z,98707.17
2018-11-02T15:45:31.018Z,98709.84
2018-11-02T15:48:03.403Z,98703.86
2018-11-02T15:50:35.889Z,98696.77
2018-11-02T15:53:08.449Z,98697.76
2018-11-02T15:55:40.908Z,98702.59
2018-11-02T15:58:13.909Z,98698.88
2018-11-02T16:00:46.934Z,98705.86
2018-11-02T16:03:20.420Z,98713.25
2018-11-02T16:05:53.825Z,98726.68
2018-11-02T16:08:26.743Z,98731.50
2018-11-02T16:10:59.220Z,98737.72
2018-11-02T16:13:31.687Z,98742.77
2018-11-02T16:16:04.338Z,98750.15
2018-11-02T16:18:36.891Z,98751.63
2018-11-02T16:21:09.248Z,98745.20
2018-11-02T16:23:41.628Z,98755.88
2018-11-02T16:26:15.134Z,98763.45
2018-11-02T16:28:48.151Z,98770.45
2018-11-02T16:31:20.820Z,98783.36
2018-11-02T16:33:53.393Z,98792.89
2018-11-02T16:36:25.885Z,98794.65
2018-11-02T16:38:58.361Z,98808.25
2018-11-02T16:41:30.740Z,98804.89
2018-11-02T16:44:03.263Z,98806.89
2018-11-02T16:46:35.746Z,98811.53
2018-11-02T16:49:08.331Z,98820.37
2018-11-02T16:51:41.059Z,98818.20
2018-11-02T16:54:14.464Z,98829.23
2018-11-02T16:56:48.286Z,98833.36
2018-11-02T16:59:21.351Z,98838.36
2018-11-02T17:01:54.623Z,98844.37
2018-11-02T17:04:27.176Z,98846.23
2018-11-02T17:06:59.606Z,98851.14
2018-11-02T17:09:31.964Z,98852.22
2018-11-02T17:12:04.569Z,98851.21
2018-11-02T17:14:37.122Z,98858.20
2018-11-02T17:17:09.729Z,98853.84
2018-11-02T17:19:42.292Z,98858.75
2018-11-02T17:22:15.778Z,98861.09
2018-11-02T17:24:48.467Z,98865.73
2018-11-02T17:27:21.697Z,98860.67
2018-11-02T17:29:54.726Z,98861.53
2018-11-02T17:32:27.330Z,98864.36
2018-11-02T17:34:59.814Z,98863.66
2018-11-02T17:37:32.339Z,98871.34
2018-11-02T17:40:05.854Z,98864.91
2018-11-02T17:42:38.292Z,98860.06
2018-11-02T17:45:10.734Z,98862.10
2018-11-02T17:47:43.385Z,98864.75
2018-11-02T17:50:17.051Z,98865.69
2018-11-02T17:52:50.320Z,98863.62
2018-11-02T17:55:23.243Z,98859.75
2018-11-02T17:57:56.211Z,98866.31
2018-11-02T18:00:28.692Z,98869.94
2018-11-02T18:03:01.168Z,98875.11
2018-11-02T18:05:33.605Z,98879.73
2018-11-02T18:08:06.231Z,98881.45
2018-11-02T18:10:38.784Z,98883.40
2018-11-02T18:13:11.223Z,98888.52
2018-11-02T18:15:44.993Z,98896.58
2018-11-02T18:18:18.367Z,98887.28
2018-11-02T18:20:52.114Z,98879.48
2018-11-02T18:23:25.616Z,98883.72
2018-11-02T18:25:58.366Z,98886.80
2018-11-02T18:28:31.262Z,98899.58
2018-11-02T18:31:04.629Z,98909.19
2018-11-02T18:33:37.586Z,98907.69
2018-11-02T18:36:10.040Z,98912.19
2018-11-02T18:38:42.489Z,98916.84
2018-11-02T18:41:14.926Z,98918.22
2018-11-02T18:43:47.371Z,98922.72
2018-11-02T18:46:19.756Z,98920.16
2018-11-02T18:48:52.292Z,98930.39
2018-11-02T18:51:26.641Z,98933.73
2018-11-02T18:53:59.499Z,98944.13
2018-11-02T18:56:32.891Z,98945.61
2018-11-02T18:59:06.420Z,98943.09
2018-11-02T19:01:38.998Z,98947.41
2018-11-02T19:04:11.574Z,98947.41
2018-11-02T19:06:44.178Z,98930.58
2018-11-02T19:09:16.700Z,98941.87
2018-11-02T19:11:49.131Z,98952.09
2018-11-02T19:14:21.502Z,98951.84
2018-11-02T19:16:56.299Z,98949.55
2018-11-02T19:19:29.633Z,98953.73
2018-11-02T19:22:02.790Z,98954.39
2018-11-02T19:24:35.269Z,98941.78
2018-11-02T19:27:07.803Z,98942.89
2018-11-02T19:29:40.195Z,98957.86
2018-11-02T19:32:12.845Z,98956.59
2018-11-02T19:34:47.143Z,98949.28
2018-11-02T19:37:19.892Z,98947.28
2018-11-02T19:39:53.464Z,98950.33
2018-11-02T19:42:26.290Z,98955.83
2018-11-02T19:44:58.936Z,98959.83
2018-11-02T19:47:37.227Z,98957.04
2018-11-02T19:50:11.987Z,98955.56
2018-11-02T19:52:45.411Z,98971.93
2018-11-02T19:55:18.709Z,98967.10
2018-11-02T19:57:51.789Z,98983.70
2018-11-02T20:00:24.847Z,98983.22
2018-11-02T20:02:57.389Z,98984.98
2018-11-02T20:05:30.084Z,98978.75
2018-11-02T20:08:02.696Z,98983.86
2018-11-02T20:10:35.160Z,98983.00
2018-11-02T20:13:08.087Z,98980.70
2018-11-02T20:15:40.804Z,98971.69
2018-11-02T20:18:13.447Z,98984.43
2018-11-02T20:20:47.419Z,98991.07
2018-11-02T20:23:20.362Z,98984.55
2018-11-02T20:25:52.880Z,98986.77
2018-11-02T20:28:26.238Z,98992.28
2018-11-02T20:30:59.800Z,98991.56
2018-11-02T20:33:33.007Z,98993.09
2018-11-02T20:36:05.973Z,98991.59
2018-11-02T20:38:38.502Z,98999.16
2018-11-02T20:41:11.132Z,98994.96
2018-11-02T20:43:43.590Z,98999.57
2018-11-02T20:46:16.050Z,99007.12
2018-11-02T20:48:48.567Z,99009.93
2018-11-02T20:51:21.089Z,99008.80
2018-11-02T20:53:53.518Z,99006.26
2018-11-02T20:56:28.348Z,99007.92
2018-11-02T20:59:01.360Z,99020.81
2018-11-02T21:01:34.484Z,99021.84
2018-11-02T21:04:07.256Z,99016.77
2018-11-02T21:06:39.881Z,99018.67
2018-11-02T21:09:13.194Z,99020.59
2018-11-02T21:11:45.469Z,99019.70
2018-11-02T21:14:17.948Z,99024.02
2018-11-02T21:16:50.446Z,99032.55
2018-11-02T21:19:22.837Z,99035.22
2018-11-02T21:21:56.257Z,99037.66
2018-11-02T21:24:28.646Z,99043.90
2018-11-02T21:27:01.242Z,99043.11
2018-11-02T21:29:33.633Z,99038.30
2018-11-02T21:32:06.039Z,99045.02
2018-11-02T21:34:38.490Z,99049.61
2018-11-02T21:37:10.946Z,99053.43
2018-11-02T21:39:43.486Z,99054.08
2018-11-02T21:42:17.941Z,99048.98
2018-11-02T21:44:52.866Z,99059.69
2018-11-02T21:47:25.819Z,99063.83
2018-11-02T21:49:58.359Z,99064.10
2018-11-02T21:52:30.842Z,99068.42
2018-11-02T21:55:03.486Z,99072.53
2018-11-02T21:57:36.068Z,99070.25
2018-11-02T22:00:18.800Z,99070.78
2018-11-02T22:02:51.156Z,99065.17
2018-11-02T22:05:23.534Z,99058.80
2018-11-02T22:07:56.025Z,99067.34
2018-11-02T22:10:28.542Z,99063.02
2018-11-02T22:13:01.114Z,99068.88
2018-11-02T22:15:33.699Z,99069.76
2018-11-02T22:18:06.154Z,99066.72
2018-11-02T22:20:38.703Z,99066.45
2018-11-02T22:23:11.314Z,99070.27
2018-11-02T22:25:43.870Z,99069.02
2018-11-02T22:28:16.273Z,99065.69
2018-11-02T22:30:48.700Z,99057.80
2018-11-02T22:33:20.999Z,99061.23
2018-11-02T22:35:55.966Z,99060.61
2018-11-02T22:38:28.362Z,99059.83
2018-11-02T22:41:00.821Z,99062.38
2018-11-02T22:43:33.322Z,99063.39
2018-11-02T22:46:06.645Z,99071.55
2018-11-02T22:48:38.994Z,99075.64
2018-11-02T22:51:11.350Z,99075.64
2018-11-02T22:53:43.858Z,99079.47
2018-11-02T22:56:16.258Z,99075.64
2018-11-02T22:58:48.647Z,99082.52
2018-11-02T23:01:26.130Z,99075.11
2018-11-02T23:03:59.890Z,99075.24
2018-11-02T23:06:32.337Z,99075.00
2018-11-02T23:09:07.539Z,99070.16
2018-11-02T23:11:40.074Z,99067.61
2018-11-02T23:14:12.770Z,99067.72
2018-11-02T23:16:45.234Z,99072.47
2018-11-02T23:19:17.662Z,99078.95
2018-11-02T23:21:50.029Z,99075.02
2018-11-02T23:24:22.642Z,99066.83
2018-11-02T23:26:55.039Z,99066.95
2018-11-02T23:29:27.537Z,99060.09
2018-11-02T23:32:00.069Z,99058.32
2018-11-02T23:34:32.804Z,99053.33
2018-11-02T23:37:05.197Z,99050.65
2018-11-02T23:39:37.681Z,99053.97
2018-11-02T23:42:10.131Z,99047.98
2018-11-02T23:44:42.560Z,99049.66
2018-11-02T23:47:14.858Z,99055.90
2018-11-02T23:49:47.254Z,99059.07
2018-11-02T23:52:19.950Z,99069.80
2018-11-02T23:54:52.822Z,99065.19
2018-11-02T23:57:25.715Z,99064.16
2018-11-02T23:59:59.482Z,99068.77
